sensor_id;sensor_type;location;lat;lon;timestamp;temperature;humidity
79571;DHT22;69034;49.444;7.758;2024-02-28T00:03:36;8.70;61.20
79571;DHT22;69034;49.444;7.758;2024-02-28T00:07:36;8.70;61.10
79571;DHT22;69034;49.444;7.758;2024-02-28T00:11:45;8.60;61.10
79571;DHT22;69034;49.444;7.758;2024-02-28T00:15:46;8.60;61.10
79571;DHT22;69034;49.444;7.758;2024-02-28T00:19:46;8.50;61.10
79571;DHT22;69034;49.444;7.758;2024-02-28T00:23:47;8.40;61.10
79571;DHT22;69034;49.444;7.758;2024-02-28T00:27:48;8.40;61.00
79571;DHT22;69034;49.444;7.758;2024-02-28T00:31:48;8.30;61.10
79571;DHT22;69034;49.444;7.758;2024-02-28T00:35:49;8.20;61.10
79571;DHT22;69034;49.444;7.758;2024-02-28T00:39:49;8.20;61.00
79571;DHT22;69034;49.444;7.758;2024-02-28T00:43:50;8.10;61.00
79571;DHT22;69034;49.444;7.758;2024-02-28T00:47:51;8.00;61.00
79571;DHT22;69034;49.444;7.758;2024-02-28T00:51:52;8.00;61.00
79571;DHT22;69034;49.444;7.758;2024-02-28T00:55:52;7.90;61.00
79571;DHT22;69034;49.444;7.758;2024-02-28T00:59:53;7.80;61.00
79571;DHT22;69034;49.444;7.758;2024-02-28T01:03:55;7.80;61.00
79571;DHT22;69034;49.444;7.758;2024-02-28T01:07:55;7.70;61.00
79571;DHT22;69034;49.444;7.758;2024-02-28T01:11:56;7.70;61.00
79571;DHT22;69034;49.444;7.758;2024-02-28T01:15:57;7.60;61.00
79571;DHT22;69034;49.444;7.758;2024-02-28T01:19:59;7.60;61.00
79571;DHT22;69034;49.444;7.758;2024-02-28T01:24:00;7.50;61.00
79571;DHT22;69034;49.444;7.758;2024-02-28T01:28:01;7.50;61.10
79571;DHT22;69034;49.444;7.758;2024-02-28T01:32:04;7.40;61.10
79571;DHT22;69034;49.444;7.758;2024-02-28T01:36:06;7.30;61.00
79571;DHT22;69034;49.444;7.758;2024-02-28T01:40:08;7.30;61.00
79571;DHT22;69034;49.444;7.758;2024-02-28T01:44:08;7.30;61.10
79571;DHT22;69034;49.444;7.758;2024-02-28T01:48:09;7.30;61.10
79571;DHT22;69034;49.444;7.758;2024-02-28T01:52:11;7.40;61.20
79571;DHT22;69034;49.444;7.758;2024-02-28T01:56:14;7.50;60.90
79571;DHT22;69034;49.444;7.758;2024-02-28T02:00:17;7.60;60.80
79571;DHT22;69034;49.444;7.758;2024-02-28T02:04:18;7.60;60.60
79571;DHT22;69034;49.444;7.758;2024-02-28T02:08:19;7.70;60.50
79571;DHT22;69034;49.444;7.758;2024-02-28T02:12:20;7.70;60.40
79571;DHT22;69034;49.444;7.758;2024-02-28T02:16:21;7.70;60.30
79571;DHT22;69034;49.444;7.758;2024-02-28T02:20:30;7.70;60.20
79571;DHT22;69034;49.444;7.758;2024-02-28T02:24:32;7.70;60.20
79571;DHT22;69034;49.444;7.758;2024-02-28T02:28:33;7.70;60.00
79571;DHT22;69034;49.444;7.758;2024-02-28T02:32:34;7.70;59.90
79571;DHT22;69034;49.444;7.758;2024-02-28T02:36:34;7.60;59.80
79571;DHT22;69034;49.444;7.758;2024-02-28T02:40:35;7.40;60.10
79571;DHT22;69034;49.444;7.758;2024-02-28T02:44:35;7.20;60.30
79571;DHT22;69034;49.444;7.758;2024-02-28T02:48:36;7.10;60.40
79571;DHT22;69034;49.444;7.758;2024-02-28T02:52:36;7.00;60.50
79571;DHT22;69034;49.444;7.758;2024-02-28T02:56:40;6.90;60.60
79571;DHT22;69034;49.444;7.758;2024-02-28T03:00:41;6.80;60.60
79571;DHT22;69034;49.444;7.758;2024-02-28T03:04:41;6.70;60.60
79571;DHT22;69034;49.444;7.758;2024-02-28T03:08:42;6.60;60.70
79571;DHT22;69034;49.444;7.758;2024-02-28T03:12:43;6.50;60.70
79571;DHT22;69034;49.444;7.758;2024-02-28T03:16:43;6.50;60.70
79571;DHT22;69034;49.444;7.758;2024-02-28T03:20:45;6.40;60.80
79571;DHT22;69034;49.444;7.758;2024-02-28T03:24:45;6.40;60.80
79571;DHT22;69034;49.444;7.758;2024-02-28T03:28:46;6.40;60.90
79571;DHT22;69034;49.444;7.758;2024-02-28T03:32:46;6.40;60.90
79571;DHT22;69034;49.444;7.758;2024-02-28T03:36:47;6.40;60.90
79571;DHT22;69034;49.444;7.758;2024-02-28T03:40:47;6.40;61.00
79571;DHT22;69034;49.444;7.758;2024-02-28T03:44:48;6.40;61.10
79571;DHT22;69034;49.444;7.758;2024-02-28T03:48:49;6.40;61.20
79571;DHT22;69034;49.444;7.758;2024-02-28T03:52:49;6.40;61.20
79571;DHT22;69034;49.444;7.758;2024-02-28T03:56:50;6.40;61.30
79571;DHT22;69034;49.444;7.758;2024-02-28T04:00:50;6.40;61.30
79571;DHT22;69034;49.444;7.758;2024-02-28T04:04:51;6.40;61.40
79571;DHT22;69034;49.444;7.758;2024-02-28T04:08:51;6.40;61.40
79571;DHT22;69034;49.444;7.758;2024-02-28T04:12:52;6.40;61.50
79571;DHT22;69034;49.444;7.758;2024-02-28T04:16:53;6.40;61.40
79571;DHT22;69034;49.444;7.758;2024-02-28T04:20:53;6.40;61.60
79571;DHT22;69034;49.444;7.758;2024-02-28T04:24:54;6.40;61.60
79571;DHT22;69034;49.444;7.758;2024-02-28T04:28:54;6.40;61.60
79571;DHT22;69034;49.444;7.758;2024-02-28T04:32:55;6.40;61.70
79571;DHT22;69034;49.444;7.758;2024-02-28T04:36:56;6.40;61.70
79571;DHT22;69034;49.444;7.758;2024-02-28T04:40:56;6.40;61.70
79571;DHT22;69034;49.444;7.758;2024-02-28T04:44:57;6.40;61.80
79571;DHT22;69034;49.444;7.758;2024-02-28T04:48:57;6.50;61.70
79571;DHT22;69034;49.444;7.758;2024-02-28T04:52:58;6.40;61.80
79571;DHT22;69034;49.444;7.758;2024-02-28T04:56:59;6.40;61.80
79571;DHT22;69034;49.444;7.758;2024-02-28T05:00:59;6.40;61.90
79571;DHT22;69034;49.444;7.758;2024-02-28T05:05:00;6.40;61.90
79571;DHT22;69034;49.444;7.758;2024-02-28T05:09:01;6.40;62.00
79571;DHT22;69034;49.444;7.758;2024-02-28T05:13:01;6.40;62.00
79571;DHT22;69034;49.444;7.758;2024-02-28T05:17:04;6.40;61.90
79571;DHT22;69034;49.444;7.758;2024-02-28T05:21:04;6.40;62.00
79571;DHT22;69034;49.444;7.758;2024-02-28T05:25:05;6.40;62.10
79571;DHT22;69034;49.444;7.758;2024-02-28T05:29:06;6.40;62.00
79571;DHT22;69034;49.444;7.758;2024-02-28T05:33:06;6.50;62.20
79571;DHT22;69034;49.444;7.758;2024-02-28T05:37:07;6.40;62.10
79571;DHT22;69034;49.444;7.758;2024-02-28T05:41:07;6.40;62.20
79571;DHT22;69034;49.444;7.758;2024-02-28T05:45:08;6.50;62.20
79571;DHT22;69034;49.444;7.758;2024-02-28T05:49:09;6.40;62.20
79571;DHT22;69034;49.444;7.758;2024-02-28T05:53:10;6.50;62.20
79571;DHT22;69034;49.444;7.758;2024-02-28T05:57:10;6.50;62.20
79571;DHT22;69034;49.444;7.758;2024-02-28T06:01:13;6.40;62.30
79571;DHT22;69034;49.444;7.758;2024-02-28T06:05:15;6.40;62.30
79571;DHT22;69034;49.444;7.758;2024-02-28T06:09:15;6.40;62.40
79571;DHT22;69034;49.444;7.758;2024-02-28T06:13:16;6.50;62.50
79571;DHT22;69034;49.444;7.758;2024-02-28T06:17:16;6.50;62.50
79571;DHT22;69034;49.444;7.758;2024-02-28T06:21:17;6.60;62.50
79571;DHT22;69034;49.444;7.758;2024-02-28T06:25:17;6.60;62.40
79571;DHT22;69034;49.444;7.758;2024-02-28T06:29:19;6.60;62.40
79571;DHT22;69034;49.444;7.758;2024-02-28T06:33:22;6.70;62.40
79571;DHT22;69034;49.444;7.758;2024-02-28T06:37:22;6.70;62.40
79571;DHT22;69034;49.444;7.758;2024-02-28T06:41:23;6.80;62.50
79571;DHT22;69034;49.444;7.758;2024-02-28T06:45:24;6.80;62.30
79571;DHT22;69034;49.444;7.758;2024-02-28T06:49:24;6.80;62.50
79571;DHT22;69034;49.444;7.758;2024-02-28T06:53:26;6.90;62.40
79571;DHT22;69034;49.444;7.758;2024-02-28T06:57:26;7.00;62.50
79571;DHT22;69034;49.444;7.758;2024-02-28T07:01:27;7.00;62.40
79571;DHT22;69034;49.444;7.758;2024-02-28T07:05:27;7.10;62.30
79571;DHT22;69034;49.444;7.758;2024-02-28T07:09:28;7.20;62.30
79571;DHT22;69034;49.444;7.758;2024-02-28T07:13:31;7.30;62.20
79571;DHT22;69034;49.444;7.758;2024-02-28T07:17:32;7.40;62.10
79571;DHT22;69034;49.444;7.758;2024-02-28T07:21:33;7.60;62.10
79571;DHT22;69034;49.444;7.758;2024-02-28T07:25:33;7.60;62.10
79571;DHT22;69034;49.444;7.758;2024-02-28T07:29:36;7.70;62.10
79571;DHT22;69034;49.444;7.758;2024-02-28T07:33:36;7.70;62.10
79571;DHT22;69034;49.444;7.758;2024-02-28T07:37:37;7.80;62.20
79571;DHT22;69034;49.444;7.758;2024-02-28T07:41:41;7.80;62.20
79571;DHT22;69034;49.444;7.758;2024-02-28T07:45:42;7.90;62.10
79571;DHT22;69034;49.444;7.758;2024-02-28T07:49:43;8.00;62.00
79571;DHT22;69034;49.444;7.758;2024-02-28T07:53:44;8.10;61.90
79571;DHT22;69034;49.444;7.758;2024-02-28T07:57:44;8.30;61.70
79571;DHT22;69034;49.444;7.758;2024-02-28T08:01:45;8.30;61.80
79571;DHT22;69034;49.444;7.758;2024-02-28T08:05:46;8.30;61.80
79571;DHT22;69034;49.444;7.758;2024-02-28T08:09:48;8.30;61.90
79571;DHT22;69034;49.444;7.758;2024-02-28T08:13:49;8.40;61.80
79571;DHT22;69034;49.444;7.758;2024-02-28T08:17:50;8.40;61.70
79571;DHT22;69034;49.444;7.758;2024-02-28T08:21:50;8.60;61.50
79571;DHT22;69034;49.444;7.758;2024-02-28T08:25:51;8.70;61.30
79571;DHT22;69034;49.444;7.758;2024-02-28T08:29:52;8.80;61.30
79571;DHT22;69034;49.444;7.758;2024-02-28T08:33:52;9.00;61.10
79571;DHT22;69034;49.444;7.758;2024-02-28T08:37:53;9.10;61.00
79571;DHT22;69034;49.444;7.758;2024-02-28T08:41:54;9.30;60.90
79571;DHT22;69034;49.444;7.758;2024-02-28T08:45:54;9.40;60.70
79571;DHT22;69034;49.444;7.758;2024-02-28T08:49:55;9.60;60.60
79571;DHT22;69034;49.444;7.758;2024-02-28T08:53:56;9.70;60.40
79571;DHT22;69034;49.444;7.758;2024-02-28T08:58:00;9.90;60.30
79571;DHT22;69034;49.444;7.758;2024-02-28T09:02:00;10.10;60.10
79571;DHT22;69034;49.444;7.758;2024-02-28T09:06:01;10.20;59.80
79571;DHT22;69034;49.444;7.758;2024-02-28T09:10:05;10.30;59.70
79571;DHT22;69034;49.444;7.758;2024-02-28T09:14:06;10.50;59.60
79571;DHT22;69034;49.444;7.758;2024-02-28T09:18:07;10.70;59.40
79571;DHT22;69034;49.444;7.758;2024-02-28T09:22:09;10.80;59.30
79571;DHT22;69034;49.444;7.758;2024-02-28T09:26:09;11.00;59.10
79571;DHT22;69034;49.444;7.758;2024-02-28T09:30:11;11.10;59.10
79571;DHT22;69034;49.444;7.758;2024-02-28T09:34:11;11.30;58.90
79571;DHT22;69034;49.444;7.758;2024-02-28T09:38:12;11.40;58.80
79571;DHT22;69034;49.444;7.758;2024-02-28T09:42:13;11.60;58.60
79571;DHT22;69034;49.444;7.758;2024-02-28T09:46:15;11.70;58.40
79571;DHT22;69034;49.444;7.758;2024-02-28T09:50:18;11.90;58.20
79571;DHT22;69034;49.444;7.758;2024-02-28T09:54:19;12.10;58.00
79571;DHT22;69034;49.444;7.758;2024-02-28T09:58:20;12.30;57.80
79571;DHT22;69034;49.444;7.758;2024-02-28T10:02:24;12.40;57.70
79571;DHT22;69034;49.444;7.758;2024-02-28T10:06:25;12.70;57.40
79571;DHT22;69034;49.444;7.758;2024-02-28T10:10:26;13.00;57.00
79571;DHT22;69034;49.444;7.758;2024-02-28T10:14:27;13.30;56.50
79571;DHT22;69034;49.444;7.758;2024-02-28T10:18:28;13.60;56.00
79571;DHT22;69034;49.444;7.758;2024-02-28T10:22:36;13.90;55.50
79571;DHT22;69034;49.444;7.758;2024-02-28T10:26:46;14.30;55.00
79571;DHT22;69034;49.444;7.758;2024-02-28T10:30:55;14.70;54.50
79571;DHT22;69034;49.444;7.758;2024-02-28T10:34:56;15.20;54.00
79571;DHT22;69034;49.444;7.758;2024-02-28T10:38:58;15.60;53.50
79571;DHT22;69034;49.444;7.758;2024-02-28T10:43:01;15.90;53.30
79571;DHT22;69034;49.444;7.758;2024-02-28T10:47:02;16.10;52.90
79571;DHT22;69034;49.444;7.758;2024-02-28T10:51:04;16.50;52.60
79571;DHT22;69034;49.444;7.758;2024-02-28T10:55:08;16.90;52.20
79571;DHT22;69034;49.444;7.758;2024-02-28T10:59:10;17.30;51.70
79571;DHT22;69034;49.444;7.758;2024-02-28T11:03:13;17.80;51.20
79571;DHT22;69034;49.444;7.758;2024-02-28T11:07:20;18.40;50.60
79571;DHT22;69034;49.444;7.758;2024-02-28T11:11:22;19.40;49.80
79571;DHT22;69034;49.444;7.758;2024-02-28T11:15:25;20.80;48.50
79571;DHT22;69034;49.444;7.758;2024-02-28T11:19:29;22.20;47.50
79571;DHT22;69034;49.444;7.758;2024-02-28T11:23:40;23.30;46.60
79571;DHT22;69034;49.444;7.758;2024-02-28T11:27:48;24.10;45.60
79571;DHT22;69034;49.444;7.758;2024-02-28T11:31:49;24.70;45.60
79571;DHT22;69034;49.444;7.758;2024-02-28T11:35:59;25.00;45.30
79571;DHT22;69034;49.444;7.758;2024-02-28T11:40:00;25.20;44.80
79571;DHT22;69034;49.444;7.758;2024-02-28T11:44:01;25.40;44.50
79571;DHT22;69034;49.444;7.758;2024-02-28T11:48:01;25.60;44.00
79571;DHT22;69034;49.444;7.758;2024-02-28T11:52:04;25.90;43.20
79571;DHT22;69034;49.444;7.758;2024-02-28T11:56:04;26.10;42.60
79571;DHT22;69034;49.444;7.758;2024-02-28T12:00:06;26.20;42.20
79571;DHT22;69034;49.444;7.758;2024-02-28T12:04:08;26.30;41.60
79571;DHT22;69034;49.444;7.758;2024-02-28T12:08:09;26.70;41.40
79571;DHT22;69034;49.444;7.758;2024-02-28T12:12:12;27.10;41.10
79571;DHT22;69034;49.444;7.758;2024-02-28T12:16:12;27.50;40.50
79571;DHT22;69034;49.444;7.758;2024-02-28T12:20:13;28.00;40.30
79571;DHT22;69034;49.444;7.758;2024-02-28T12:24:14;28.10;39.60
79571;DHT22;69034;49.444;7.758;2024-02-28T12:28:14;28.40;38.80
79571;DHT22;69034;49.444;7.758;2024-02-28T12:32:16;28.60;39.00
79571;DHT22;69034;49.444;7.758;2024-02-28T12:36:18;28.80;38.40
79571;DHT22;69034;49.444;7.758;2024-02-28T12:40:18;29.30;38.30
79571;DHT22;69034;49.444;7.758;2024-02-28T12:44:19;29.50;37.40
79571;DHT22;69034;49.444;7.758;2024-02-28T12:48:20;29.60;37.30
79571;DHT22;69034;49.444;7.758;2024-02-28T12:52:20;29.90;37.00
79571;DHT22;69034;49.444;7.758;2024-02-28T12:56:21;30.20;36.70
79571;DHT22;69034;49.444;7.758;2024-02-28T13:00:22;30.30;36.40
79571;DHT22;69034;49.444;7.758;2024-02-28T13:04:22;30.00;36.30
79571;DHT22;69034;49.444;7.758;2024-02-28T13:08:23;29.90;36.40
79571;DHT22;69034;49.444;7.758;2024-02-28T13:12:23;29.80;36.20
79571;DHT22;69034;49.444;7.758;2024-02-28T13:16:24;30.00;35.90
79571;DHT22;69034;49.444;7.758;2024-02-28T13:20:25;30.40;35.00
79571;DHT22;69034;49.444;7.758;2024-02-28T13:24:26;30.80;34.00
79571;DHT22;69034;49.444;7.758;2024-02-28T13:28:27;31.20;34.00
79571;DHT22;69034;49.444;7.758;2024-02-28T13:32:29;31.70;34.20
79571;DHT22;69034;49.444;7.758;2024-02-28T13:36:30;32.10;34.00
79571;DHT22;69034;49.444;7.758;2024-02-28T13:40:32;32.30;33.70
79571;DHT22;69034;49.444;7.758;2024-02-28T13:44:33;32.50;33.60
79571;DHT22;69034;49.444;7.758;2024-02-28T13:48:34;32.60;33.30
79571;DHT22;69034;49.444;7.758;2024-02-28T13:52:35;32.80;31.60
79571;DHT22;69034;49.444;7.758;2024-02-28T13:56:36;32.60;31.40
79571;DHT22;69034;49.444;7.758;2024-02-28T14:00:38;32.40;31.80
79571;DHT22;69034;49.444;7.758;2024-02-28T14:04:39;32.10;31.50
79571;DHT22;69034;49.444;7.758;2024-02-28T14:08:42;31.50;31.10
79571;DHT22;69034;49.444;7.758;2024-02-28T14:12:42;30.90;31.10
79571;DHT22;69034;49.444;7.758;2024-02-28T14:16:43;30.30;31.50
79571;DHT22;69034;49.444;7.758;2024-02-28T14:20:45;30.10;31.40
79571;DHT22;69034;49.444;7.758;2024-02-28T14:24:45;29.90;31.50
79571;DHT22;69034;49.444;7.758;2024-02-28T14:28:46;29.80;31.60
79571;DHT22;69034;49.444;7.758;2024-02-28T14:32:47;29.80;31.70
79571;DHT22;69034;49.444;7.758;2024-02-28T14:36:49;29.80;31.40
79571;DHT22;69034;49.444;7.758;2024-02-28T14:40:50;29.60;32.00
79571;DHT22;69034;49.444;7.758;2024-02-28T14:44:50;29.60;31.70
79571;DHT22;69034;49.444;7.758;2024-02-28T14:48:51;29.50;32.40
79571;DHT22;69034;49.444;7.758;2024-02-28T14:52:52;29.50;32.40
79571;DHT22;69034;49.444;7.758;2024-02-28T14:56:53;29.20;33.00
79571;DHT22;69034;49.444;7.758;2024-02-28T15:00:53;29.00;33.40
79571;DHT22;69034;49.444;7.758;2024-02-28T15:04:58;28.70;33.80
79571;DHT22;69034;49.444;7.758;2024-02-28T15:09:00;28.80;33.20
79571;DHT22;69034;49.444;7.758;2024-02-28T15:13:01;28.90;32.70
79571;DHT22;69034;49.444;7.758;2024-02-28T15:17:02;29.00;33.20
79571;DHT22;69034;49.444;7.758;2024-02-28T15:21:02;28.80;33.20
79571;DHT22;69034;49.444;7.758;2024-02-28T15:25:03;28.60;33.00
79571;DHT22;69034;49.444;7.758;2024-02-28T15:29:04;28.30;31.90
79571;DHT22;69034;49.444;7.758;2024-02-28T15:33:05;28.00;31.40
79571;DHT22;69034;49.444;7.758;2024-02-28T15:37:06;27.90;31.80
79571;DHT22;69034;49.444;7.758;2024-02-28T15:41:07;27.70;32.40
79571;DHT22;69034;49.444;7.758;2024-02-28T15:45:08;27.10;32.90
79571;DHT22;69034;49.444;7.758;2024-02-28T15:49:09;26.40;33.50
79571;DHT22;69034;49.444;7.758;2024-02-28T15:53:10;25.60;34.00
79571;DHT22;69034;49.444;7.758;2024-02-28T15:57:10;24.90;34.60
79571;DHT22;69034;49.444;7.758;2024-02-28T16:01:11;24.10;35.20
79571;DHT22;69034;49.444;7.758;2024-02-28T16:05:12;23.40;35.70
79571;DHT22;69034;49.444;7.758;2024-02-28T16:09:13;22.70;36.00
79571;DHT22;69034;49.444;7.758;2024-02-28T16:13:15;22.30;36.00
79571;DHT22;69034;49.444;7.758;2024-02-28T16:17:15;21.80;36.10
79571;DHT22;69034;49.444;7.758;2024-02-28T16:21:16;21.40;36.20
79571;DHT22;69034;49.444;7.758;2024-02-28T16:25:18;21.00;36.50
79571;DHT22;69034;49.444;7.758;2024-02-28T16:29:18;20.50;36.90
79571;DHT22;69034;49.444;7.758;2024-02-28T16:33:22;20.00;36.70
79571;DHT22;69034;49.444;7.758;2024-02-28T16:37:24;19.20;36.80
79571;DHT22;69034;49.444;7.758;2024-02-28T16:41:25;18.40;36.80
79571;DHT22;69034;49.444;7.758;2024-02-28T16:45:26;18.00;37.40
79571;DHT22;69034;49.444;7.758;2024-02-28T16:49:26;17.70;37.60
79571;DHT22;69034;49.444;7.758;2024-02-28T16:53:28;17.50;38.10
79571;DHT22;69034;49.444;7.758;2024-02-28T16:57:31;17.30;39.00
79571;DHT22;69034;49.444;7.758;2024-02-28T17:01:32;17.10;39.80
79571;DHT22;69034;49.444;7.758;2024-02-28T17:05:32;17.00;40.60
79571;DHT22;69034;49.444;7.758;2024-02-28T17:09:38;16.90;41.30
79571;DHT22;69034;49.444;7.758;2024-02-28T17:13:39;16.70;41.90
79571;DHT22;69034;49.444;7.758;2024-02-28T17:17:40;16.60;42.40
79571;DHT22;69034;49.444;7.758;2024-02-28T17:21:41;16.40;42.90
79571;DHT22;69034;49.444;7.758;2024-02-28T17:25:42;16.30;43.50
79571;DHT22;69034;49.444;7.758;2024-02-28T17:29:42;16.10;43.80
79571;DHT22;69034;49.444;7.758;2024-02-28T17:33:45;16.00;44.30
79571;DHT22;69034;49.444;7.758;2024-02-28T17:37:47;15.80;44.80
79571;DHT22;69034;49.444;7.758;2024-02-28T17:41:48;15.70;45.20
79571;DHT22;69034;49.444;7.758;2024-02-28T17:45:49;15.60;45.40
79571;DHT22;69034;49.444;7.758;2024-02-28T17:49:50;15.40;45.60
79571;DHT22;69034;49.444;7.758;2024-02-28T17:53:52;15.20;45.60
79571;DHT22;69034;49.444;7.758;2024-02-28T17:57:52;14.90;45.90
79571;DHT22;69034;49.444;7.758;2024-02-28T18:01:53;14.60;46.30
79571;DHT22;69034;49.444;7.758;2024-02-28T18:05:54;14.40;46.40
79571;DHT22;69034;49.444;7.758;2024-02-28T18:09:54;14.20;46.70
79571;DHT22;69034;49.444;7.758;2024-02-28T18:13:55;14.00;46.80
79571;DHT22;69034;49.444;7.758;2024-02-28T18:17:56;13.80;47.00
79571;DHT22;69034;49.444;7.758;2024-02-28T18:21:57;13.70;47.20
79571;DHT22;69034;49.444;7.758;2024-02-28T18:25:57;13.50;47.30
79571;DHT22;69034;49.444;7.758;2024-02-28T18:29:58;13.40;47.40
79571;DHT22;69034;49.444;7.758;2024-02-28T18:33:58;13.20;47.60
79571;DHT22;69034;49.444;7.758;2024-02-28T18:37:59;13.10;47.70
79571;DHT22;69034;49.444;7.758;2024-02-28T18:42:00;13.00;47.80
79571;DHT22;69034;49.444;7.758;2024-02-28T18:46:01;12.80;48.00
79571;DHT22;69034;49.444;7.758;2024-02-28T18:50:05;12.70;48.20
79571;DHT22;69034;49.444;7.758;2024-02-28T18:54:07;12.50;48.30
79571;DHT22;69034;49.444;7.758;2024-02-28T18:58:08;12.40;48.60
79571;DHT22;69034;49.444;7.758;2024-02-28T19:02:11;12.30;48.50
79571;DHT22;69034;49.444;7.758;2024-02-28T19:06:12;12.20;48.60
79571;DHT22;69034;49.444;7.758;2024-02-28T19:10:12;12.10;48.90
79571;DHT22;69034;49.444;7.758;2024-02-28T19:14:13;12.00;48.90
79571;DHT22;69034;49.444;7.758;2024-02-28T19:18:14;11.90;49.00
79571;DHT22;69034;49.444;7.758;2024-02-28T19:22:14;11.80;49.20
79571;DHT22;69034;49.444;7.758;2024-02-28T19:26:18;11.70;49.20
79571;DHT22;69034;49.444;7.758;2024-02-28T19:30:19;11.60;49.40
79571;DHT22;69034;49.444;7.758;2024-02-28T19:34:19;11.50;49.60
79571;DHT22;69034;49.444;7.758;2024-02-28T19:38:21;11.40;49.60
79571;DHT22;69034;49.444;7.758;2024-02-28T19:42:22;11.30;49.70
79571;DHT22;69034;49.444;7.758;2024-02-28T19:46:22;11.20;49.80
79571;DHT22;69034;49.444;7.758;2024-02-28T19:50:23;11.20;49.80
79571;DHT22;69034;49.444;7.758;2024-02-28T19:54:24;11.10;49.90
79571;DHT22;69034;49.444;7.758;2024-02-28T19:58:27;11.00;50.10
79571;DHT22;69034;49.444;7.758;2024-02-28T20:02:28;10.90;50.10
79571;DHT22;69034;49.444;7.758;2024-02-28T20:06:28;10.80;50.20
79571;DHT22;69034;49.444;7.758;2024-02-28T20:10:29;10.70;50.20
79571;DHT22;69034;49.444;7.758;2024-02-28T20:14:30;10.60;50.30
79571;DHT22;69034;49.444;7.758;2024-02-28T20:18:31;10.50;50.60
79571;DHT22;69034;49.444;7.758;2024-02-28T20:22:31;10.40;50.60
79571;DHT22;69034;49.444;7.758;2024-02-28T20:26:32;10.30;50.70
79571;DHT22;69034;49.444;7.758;2024-02-28T20:30:32;10.20;50.70
79571;DHT22;69034;49.444;7.758;2024-02-28T20:34:35;10.20;50.80
79571;DHT22;69034;49.444;7.758;2024-02-28T20:38:36;10.10;50.90
79571;DHT22;69034;49.444;7.758;2024-02-28T20:42:37;10.00;51.00
79571;DHT22;69034;49.444;7.758;2024-02-28T20:46:40;9.90;51.20
79571;DHT22;69034;49.444;7.758;2024-02-28T20:50:41;9.80;51.30
79571;DHT22;69034;49.444;7.758;2024-02-28T20:54:41;9.70;51.30
79571;DHT22;69034;49.444;7.758;2024-02-28T20:58:42;9.60;51.50
79571;DHT22;69034;49.444;7.758;2024-02-28T21:02:43;9.60;52.30
79571;DHT22;69034;49.444;7.758;2024-02-28T21:06:43;9.70;52.80
79571;DHT22;69034;49.444;7.758;2024-02-28T21:10:44;10.30;54.60
79571;DHT22;69034;49.444;7.758;2024-02-28T21:14:45;10.40;54.50
79571;DHT22;69034;49.444;7.758;2024-02-28T21:18:45;10.30;54.40
79571;DHT22;69034;49.444;7.758;2024-02-28T21:22:46;10.30;54.30
79571;DHT22;69034;49.444;7.758;2024-02-28T21:31:01;10.20;54.10
79571;DHT22;69034;49.444;7.758;2024-02-28T21:35:02;10.20;55.10
79571;DHT22;69034;49.444;7.758;2024-02-28T21:39:04;10.60;55.10
79571;DHT22;69034;49.444;7.758;2024-02-28T21:43:09;10.50;55.00
79571;DHT22;69034;49.444;7.758;2024-02-28T21:47:10;10.30;55.00
79571;DHT22;69034;49.444;7.758;2024-02-28T21:51:12;10.50;55.70
79571;DHT22;69034;49.444;7.758;2024-02-28T21:55:12;10.30;55.00
79571;DHT22;69034;49.444;7.758;2024-02-28T21:59:13;9.90;55.10
79571;DHT22;69034;49.444;7.758;2024-02-28T22:03:14;10.00;56.00
79571;DHT22;69034;49.444;7.758;2024-02-28T22:07:14;10.00;55.30
79571;DHT22;69034;49.444;7.758;2024-02-28T22:11:15;9.60;55.30
79571;DHT22;69034;49.444;7.758;2024-02-28T22:15:16;9.40;55.40
79571;DHT22;69034;49.444;7.758;2024-02-28T22:19:18;9.20;55.40
79571;DHT22;69034;49.444;7.758;2024-02-28T22:23:18;9.00;55.40
79571;DHT22;69034;49.444;7.758;2024-02-28T22:27:19;8.90;55.30
79571;DHT22;69034;49.444;7.758;2024-02-28T22:31:20;8.90;55.80
79571;DHT22;69034;49.444;7.758;2024-02-28T22:35:20;8.80;55.50
79571;DHT22;69034;49.444;7.758;2024-02-28T22:39:21;8.70;55.40
79571;DHT22;69034;49.444;7.758;2024-02-28T22:43:22;8.50;55.40
79571;DHT22;69034;49.444;7.758;2024-02-28T22:47:22;8.40;55.30
79571;DHT22;69034;49.444;7.758;2024-02-28T22:51:23;8.30;55.30
79571;DHT22;69034;49.444;7.758;2024-02-28T22:55:23;8.20;55.30
79571;DHT22;69034;49.444;7.758;2024-02-28T22:59:24;8.10;55.30
79571;DHT22;69034;49.444;7.758;2024-02-28T23:03:26;8.00;55.30
79571;DHT22;69034;49.444;7.758;2024-02-28T23:07:27;7.90;55.30
79571;DHT22;69034;49.444;7.758;2024-02-28T23:11:27;7.80;55.30
79571;DHT22;69034;49.444;7.758;2024-02-28T23:15:28;7.70;55.30
79571;DHT22;69034;49.444;7.758;2024-02-28T23:19:28;7.60;55.30
79571;DHT22;69034;49.444;7.758;2024-02-28T23:23:33;7.60;55.40
79571;DHT22;69034;49.444;7.758;2024-02-28T23:27:34;7.50;55.30
79571;DHT22;69034;49.444;7.758;2024-02-28T23:31:34;7.40;55.30
79571;DHT22;69034;49.444;7.758;2024-02-28T23:35:35;7.40;55.30
79571;DHT22;69034;49.444;7.758;2024-02-28T23:39:36;7.30;55.30
79571;DHT22;69034;49.444;7.758;2024-02-28T23:43:37;7.20;55.40
79571;DHT22;69034;49.444;7.758;2024-02-28T23:47:38;7.20;55.40
79571;DHT22;69034;49.444;7.758;2024-02-28T23:51:39;7.20;55.40
79571;DHT22;69034;49.444;7.758;2024-02-28T23:55:40;7.10;55.40
79571;DHT22;69034;49.444;7.758;2024-02-28T23:59:41;7.10;55.50
